createdAt,value
2019-05-14T00:01:42.192Z,67.00
2019-05-14T00:04:11.705Z,67.12
2019-05-14T00:06:41.739Z,67.06
2019-05-14T00:09:12.119Z,67.21
2019-05-14T00:11:42.220Z,67.45
2019-05-14T00:14:11.811Z,67.67
2019-05-14T00:16:42.431Z,67.65
2019-05-14T00:19:11.896Z,67.35
2019-05-14T00:21:42.415Z,67.54
2019-05-14T00:24:32.142Z,67.46
2019-05-14T00:27:02.066Z,67.61
2019-05-14T00:29:32.168Z,67.46
2019-05-14T00:32:02.001Z,67.46
2019-05-14T00:34:31.617Z,67.80
2019-05-14T00:37:01.532Z,67.26
2019-05-14T00:39:32.008Z,67.50
2019-05-14T00:42:01.769Z,67.27
2019-05-14T00:44:32.378Z,67.21
2019-05-14T00:47:02.260Z,67.46
2019-05-14T00:49:31.773Z,67.37
2019-05-14T00:52:02.366Z,67.24
2019-05-14T00:54:32.242Z,67.42
2019-05-14T00:57:01.710Z,67.37
2019-05-14T00:59:32.199Z,67.58
2019-05-14T01:02:03.113Z,67.92
2019-05-14T01:04:32.493Z,67.50
2019-05-14T01:07:01.783Z,67.56
2019-05-14T01:09:31.572Z,67.15
2019-05-14T01:12:01.881Z,66.95
2019-05-14T01:14:31.695Z,67.48
2019-05-14T01:17:01.988Z,67.38
2019-05-14T01:19:31.691Z,67.81
2019-05-14T01:22:01.682Z,68.59
2019-05-14T01:24:32.173Z,68.23
2019-05-14T01:27:01.813Z,68.37
2019-05-14T01:29:31.796Z,68.53
2019-05-14T01:32:01.365Z,68.00
2019-05-14T01:34:32.397Z,68.12
2019-05-14T01:37:02.452Z,68.42
2019-05-14T01:39:32.324Z,68.14
2019-05-14T01:42:02.428Z,68.09
2019-05-14T01:44:32.012Z,68.72
2019-05-14T01:47:01.936Z,68.85
2019-05-14T01:49:31.873Z,69.32
2019-05-14T01:52:01.790Z,69.40
2019-05-14T01:54:31.752Z,69.07
2019-05-14T01:57:02.072Z,69.19
2019-05-14T01:59:32.355Z,69.24
2019-05-14T02:02:02.384Z,69.61
2019-05-14T02:04:31.928Z,69.54
2019-05-14T02:07:02.302Z,70.31
2019-05-14T02:09:32.007Z,70.47
2019-05-14T02:12:02.168Z,70.58
2019-05-14T02:14:31.609Z,70.77
2019-05-14T02:17:01.907Z,70.71
2019-05-14T02:19:31.844Z,70.56
2019-05-14T02:22:02.176Z,71.43
2019-05-14T02:24:32.153Z,71.32
2019-05-14T02:27:01.997Z,71.02
2019-05-14T02:29:32.076Z,71.76
2019-05-14T02:32:01.446Z,71.48
2019-05-14T02:34:30.607Z,71.16
2019-05-14T02:37:00.560Z,71.78
2019-05-14T02:39:29.903Z,71.33
2019-05-14T02:41:59.165Z,71.37
2019-05-14T02:44:29.759Z,71.76
2019-05-14T02:46:59.761Z,71.72
2019-05-14T02:49:30.906Z,71.57
2019-05-14T02:52:00.068Z,71.33
2019-05-14T02:54:29.936Z,71.31
2019-05-14T02:57:00.058Z,71.31
2019-05-14T02:59:30.498Z,71.35
2019-05-14T03:02:00.098Z,71.13
2019-05-14T03:04:30.047Z,71.37
2019-05-14T03:07:00.860Z,71.33
2019-05-14T03:09:30.139Z,71.35
2019-05-14T03:11:59.748Z,71.38
2019-05-14T03:14:30.125Z,71.42
2019-05-14T03:16:59.816Z,71.66
2019-05-14T03:19:29.746Z,71.47
2019-05-14T03:22:00.203Z,71.18
2019-05-14T03:24:29.809Z,71.53
2019-05-14T03:26:59.041Z,71.36
2019-05-14T03:29:30.835Z,71.64
2019-05-14T03:32:03.269Z,71.05
2019-05-14T03:34:33.190Z,71.43
2019-05-14T03:37:03.796Z,71.25
2019-05-14T03:39:32.655Z,71.16
2019-05-14T03:42:02.110Z,71.46
2019-05-14T03:44:31.369Z,71.81
2019-05-14T03:47:05.009Z,71.52
2019-05-14T03:49:31.543Z,71.65
2019-05-14T03:52:00.800Z,72.13
2019-05-14T03:54:30.241Z,72.20
2019-05-14T03:57:00.296Z,72.46
2019-05-14T03:59:29.904Z,72.09
2019-05-14T04:01:59.895Z,71.89
2019-05-14T04:04:30.018Z,71.93
2019-05-14T04:07:01.859Z,72.16
2019-05-14T04:09:33.583Z,72.03
2019-05-14T04:12:04.393Z,71.66
2019-05-14T04:14:36.115Z,71.96
2019-05-14T04:17:11.083Z,72.01
2019-05-14T04:19:40.808Z,71.78
2019-05-14T04:22:13.596Z,71.70
2019-05-14T04:24:43.497Z,71.67
2019-05-14T04:27:15.866Z,71.45
2019-05-14T04:29:49.600Z,71.47
2019-05-14T04:32:20.400Z,71.61
2019-05-14T04:34:50.671Z,71.56
2019-05-14T04:37:20.367Z,71.43
2019-05-14T04:39:50.477Z,71.48
2019-05-14T04:42:20.502Z,71.85
2019-05-14T04:44:50.689Z,71.45
2019-05-14T04:47:31.573Z,71.30
2019-05-14T04:49:50.994Z,71.36
2019-05-14T04:52:20.777Z,71.24
2019-05-14T04:54:50.368Z,71.68
2019-05-14T04:57:22.657Z,71.55
2019-05-14T04:59:50.689Z,71.59
2019-05-14T05:02:20.163Z,71.84
2019-05-14T05:04:50.686Z,71.72
2019-05-14T05:07:20.354Z,71.64
2019-05-14T05:09:50.368Z,72.08
2019-05-14T05:12:19.960Z,72.18
2019-05-14T05:14:49.483Z,71.98
2019-05-14T05:17:19.663Z,71.77
2019-05-14T05:19:51.645Z,71.40
2019-05-14T05:22:19.922Z,71.10
2019-05-14T05:24:49.121Z,70.83
2019-05-14T05:27:18.625Z,70.55
2019-05-14T05:29:48.607Z,71.12
2019-05-14T05:32:19.374Z,70.71
2019-05-14T05:34:49.830Z,70.70
2019-05-14T05:37:19.747Z,70.14
2019-05-14T05:39:49.283Z,69.98
2019-05-14T05:42:18.992Z,70.36
2019-05-14T05:44:48.518Z,70.37
2019-05-14T05:47:18.487Z,70.05
2019-05-14T05:49:48.767Z,69.73
2019-05-14T05:52:19.083Z,69.60
2019-05-14T05:54:48.975Z,69.95
2019-05-14T05:57:18.871Z,69.67
2019-05-14T05:59:48.667Z,69.78
2019-05-14T06:02:18.561Z,69.62
2019-05-14T06:04:50.409Z,69.26
2019-05-14T06:07:19.619Z,69.38
2019-05-14T06:09:48.797Z,69.22
2019-05-14T06:12:18.980Z,69.57
2019-05-14T06:14:48.890Z,69.93
2019-05-14T06:17:19.218Z,69.72
2019-05-14T06:19:48.857Z,69.28
2019-05-14T06:22:18.915Z,69.65
2019-05-14T06:24:48.769Z,69.79
2019-05-14T06:27:18.323Z,69.33
2019-05-14T06:29:48.944Z,68.68
2019-05-14T06:32:18.787Z,68.55
2019-05-14T06:34:48.917Z,68.80
2019-05-14T06:37:19.109Z,69.35
2019-05-14T06:39:48.687Z,68.92
2019-05-14T06:42:19.262Z,68.87
2019-05-14T06:44:49.369Z,68.06
2019-05-14T06:47:18.665Z,68.26
2019-05-14T06:49:48.779Z,67.29
2019-05-14T06:52:18.995Z,67.33
2019-05-14T06:54:49.683Z,66.70
2019-05-14T06:57:19.052Z,65.20
2019-05-14T06:59:48.554Z,63.97
2019-05-14T07:02:19.354Z,62.94
2019-05-14T07:04:48.853Z,62.09
2019-05-14T07:07:20.660Z,62.12
2019-05-14T07:09:49.039Z,60.41
2019-05-14T07:12:19.155Z,60.41
2019-05-14T07:14:48.562Z,58.20
2019-05-14T07:17:18.368Z,57.31
2019-05-14T07:19:49.062Z,57.31
2019-05-14T07:22:19.555Z,53.67
2019-05-14T07:24:49.846Z,52.70
2019-05-14T07:27:19.454Z,51.97
2019-05-14T07:29:49.325Z,51.97
2019-05-14T07:32:19.306Z,51.14
2019-05-14T07:34:48.625Z,50.68
2019-05-14T07:37:18.188Z,50.53
2019-05-14T07:39:48.671Z,50.15
2019-05-14T07:42:18.429Z,52.07
2019-05-14T07:44:48.546Z,51.16
2019-05-14T07:47:18.744Z,51.01
2019-05-14T07:49:48.954Z,54.03
2019-05-14T07:52:19.695Z,54.96
2019-05-14T07:54:49.220Z,55.78
2019-05-14T07:57:19.113Z,55.75
2019-05-14T07:59:48.641Z,55.36
2019-05-14T08:02:19.593Z,55.24
2019-05-14T08:04:48.910Z,57.02
2019-05-14T08:07:18.157Z,57.55
2019-05-14T08:09:48.037Z,58.02
2019-05-14T08:12:19.267Z,57.69
2019-05-14T08:15:02.164Z,57.44
2019-05-14T08:17:19.471Z,55.44
2019-05-14T08:19:49.320Z,54.78
2019-05-14T08:22:18.812Z,54.81
2019-05-14T08:24:49.102Z,54.44
2019-05-14T08:27:19.237Z,54.32
2019-05-14T08:29:48.962Z,54.22
2019-05-14T08:32:19.082Z,55.05
2019-05-14T08:34:48.607Z,54.92
2019-05-14T08:37:19.092Z,55.21
2019-05-14T08:39:48.889Z,55.13
2019-05-14T08:42:18.779Z,55.29
2019-05-14T08:44:51.223Z,55.00
2019-05-14T08:47:19.142Z,53.97
2019-05-14T08:49:50.692Z,54.16
2019-05-14T08:52:19.560Z,55.12
2019-05-14T08:54:53.693Z,55.22
2019-05-14T08:57:20.056Z,54.19
2019-05-14T08:59:49.396Z,53.95
2019-05-14T09:02:19.631Z,53.09
2019-05-14T09:04:54.322Z,53.27
2019-05-14T09:07:19.917Z,53.23
2019-05-14T09:09:49.094Z,52.36
2019-05-14T09:12:18.743Z,52.91
2019-05-14T09:14:48.515Z,52.51
2019-05-14T09:17:18.545Z,52.64
2019-05-14T09:20:01.725Z,52.67
2019-05-14T09:22:18.909Z,52.10
2019-05-14T09:24:49.204Z,52.84
2019-05-14T09:27:19.229Z,53.87
2019-05-14T09:29:48.750Z,53.12
2019-05-14T09:32:19.026Z,52.90
2019-05-14T09:34:48.870Z,52.55
2019-05-14T09:37:19.222Z,52.55
2019-05-14T09:39:48.936Z,52.39
2019-05-14T09:42:19.489Z,52.24
2019-05-14T09:44:49.271Z,52.40
2019-05-14T09:47:19.054Z,52.02
2019-05-14T09:49:49.091Z,53.13
2019-05-14T09:52:18.797Z,51.96
2019-05-14T09:54:49.606Z,51.83
2019-05-14T09:57:19.104Z,52.10
2019-05-14T09:59:48.227Z,51.20
2019-05-14T10:02:17.424Z,50.84
2019-05-14T10:04:49.063Z,52.00
2019-05-14T10:07:17.471Z,53.08
2019-05-14T10:09:49.060Z,53.29
2019-05-14T10:12:17.580Z,53.40
2019-05-14T10:14:48.710Z,51.67
2019-05-14T10:17:19.406Z,51.29
2019-05-14T10:19:49.863Z,51.41
2019-05-14T10:22:19.968Z,50.46
2019-05-14T10:24:49.371Z,50.66
2019-05-14T10:27:19.045Z,50.37
2019-05-14T10:29:48.369Z,50.46
2019-05-14T10:32:18.714Z,50.07
2019-05-14T10:34:48.590Z,50.64
2019-05-14T10:37:19.167Z,50.21
2019-05-14T10:39:48.496Z,49.91
2019-05-14T10:42:20.162Z,49.81
2019-05-14T10:44:48.509Z,49.98
2019-05-14T10:47:18.765Z,49.99
2019-05-14T10:49:48.245Z,49.65
2019-05-14T10:52:19.697Z,49.82
2019-05-14T10:54:55.778Z,48.74
2019-05-14T10:57:19.186Z,49.02
2019-05-14T10:59:48.418Z,48.06
2019-05-14T11:02:18.556Z,47.63
2019-05-14T11:04:48.401Z,48.41
2019-05-14T11:07:18.558Z,50.16
2019-05-14T11:09:48.607Z,50.77
2019-05-14T11:12:19.325Z,50.35
2019-05-14T11:14:49.348Z,50.02
2019-05-14T11:17:19.590Z,48.69
2019-05-14T11:19:49.014Z,48.58
2019-05-14T11:22:18.517Z,48.53
2019-05-14T11:24:49.207Z,47.04
2019-05-14T11:27:18.782Z,47.04
2019-05-14T11:29:49.141Z,47.41
2019-05-14T11:32:18.628Z,46.88
2019-05-14T11:34:47.848Z,48.50
2019-05-14T11:37:18.705Z,47.67
2019-05-14T11:39:48.697Z,44.50
2019-05-14T11:42:19.879Z,43.97
2019-05-14T11:44:48.967Z,44.68
2019-05-14T11:47:18.267Z,45.26
2019-05-14T11:49:49.195Z,45.78
2019-05-14T11:52:18.292Z,45.78
2019-05-14T11:54:49.391Z,45.35
2019-05-14T11:57:19.286Z,46.11
2019-05-14T11:59:49.030Z,46.70
2019-05-14T12:02:18.906Z,45.27
2019-05-14T12:04:48.323Z,44.81
2019-05-14T12:07:18.670Z,45.49
2019-05-14T12:09:47.961Z,46.64
2019-05-14T12:12:19.007Z,45.76
2019-05-14T12:14:48.484Z,45.20
2019-05-14T12:17:17.820Z,44.35
2019-05-14T12:19:48.456Z,43.81
2019-05-14T12:22:19.052Z,43.81
2019-05-14T12:24:49.408Z,41.94
2019-05-14T12:27:19.261Z,43.46
2019-05-14T12:29:49.741Z,43.02
2019-05-14T12:32:19.415Z,43.28
2019-05-14T12:34:48.993Z,44.46
2019-05-14T12:37:18.733Z,46.27
2019-05-14T12:39:48.002Z,46.36
2019-05-14T12:42:19.374Z,44.43
2019-05-14T12:44:48.093Z,44.53
2019-05-14T12:47:18.824Z,45.20
2019-05-14T12:49:49.067Z,44.17
2019-05-14T12:52:25.447Z,41.13
2019-05-14T12:54:50.267Z,42.82
2019-05-14T12:57:19.592Z,45.73
2019-05-14T12:59:48.834Z,44.38
2019-05-14T13:02:18.749Z,44.46
2019-05-14T13:04:48.716Z,47.10
2019-05-14T13:07:19.231Z,46.07
2019-05-14T13:09:49.121Z,44.83
2019-05-14T13:12:19.064Z,45.42
2019-05-14T13:14:49.028Z,46.16
2019-05-14T13:17:18.826Z,46.21
2019-05-14T13:19:48.800Z,46.28
2019-05-14T13:22:25.641Z,45.41
2019-05-14T13:24:49.433Z,45.62
2019-05-14T13:27:19.189Z,44.29
2019-05-14T13:29:48.936Z,45.11
2019-05-14T13:32:19.579Z,45.81
2019-05-14T13:34:48.979Z,45.84
2019-05-14T13:37:18.273Z,45.76
2019-05-14T13:39:52.828Z,45.70
2019-05-14T13:42:18.754Z,44.46
2019-05-14T13:44:48.114Z,44.63
2019-05-14T13:47:18.215Z,44.66
2019-05-14T13:49:48.706Z,45.06
2019-05-14T13:52:18.677Z,43.87
2019-05-14T13:54:48.284Z,43.95
2019-05-14T13:57:19.385Z,44.39
2019-05-14T13:59:51.195Z,44.35
2019-05-14T14:02:20.374Z,44.29
2019-05-14T14:04:49.556Z,44.35
2019-05-14T14:07:19.084Z,44.94
2019-05-14T14:09:49.858Z,45.59
2019-05-14T14:12:19.161Z,45.37
2019-05-14T14:14:49.306Z,45.21
2019-05-14T14:17:18.800Z,45.42
2019-05-14T14:19:48.393Z,45.12
2019-05-14T14:22:19.533Z,44.67
2019-05-14T14:24:48.812Z,45.57
2019-05-14T14:27:19.652Z,45.16
2019-05-14T14:29:49.414Z,44.75
2019-05-14T14:32:19.071Z,44.86
2019-05-14T14:34:48.355Z,44.54
2019-05-14T14:37:19.242Z,44.67
2019-05-14T14:39:48.951Z,45.35
2019-05-14T14:42:19.582Z,45.36
2019-05-14T14:44:48.940Z,44.83
2019-05-14T14:47:19.064Z,45.07
2019-05-14T14:49:51.654Z,44.68
2019-05-14T14:52:20.118Z,44.27
2019-05-14T14:54:49.459Z,44.00
2019-05-14T14:57:19.954Z,44.19
2019-05-14T14:59:49.522Z,44.67
2019-05-14T15:02:19.690Z,44.65
2019-05-14T15:04:50.044Z,45.06
2019-05-14T15:07:19.500Z,45.03
2019-05-14T15:09:48.961Z,44.97
2019-05-14T15:12:19.984Z,44.78
2019-05-14T15:14:48.991Z,44.65
2019-05-14T15:17:18.722Z,44.30
2019-05-14T15:19:49.955Z,44.33
2019-05-14T15:22:21.339Z,44.13
2019-05-14T15:24:50.495Z,44.68
2019-05-14T15:27:19.680Z,44.04
2019-05-14T15:29:49.025Z,43.58
2019-05-14T15:32:19.635Z,43.84
2019-05-14T15:34:50.623Z,43.97
2019-05-14T15:37:22.164Z,43.61
2019-05-14T15:39:58.775Z,43.76
2019-05-14T15:42:28.475Z,44.09
2019-05-14T15:44:59.777Z,43.93
2019-05-14T15:47:29.705Z,43.81
2019-05-14T15:49:59.549Z,43.72
2019-05-14T15:52:29.399Z,43.85
2019-05-14T15:54:58.675Z,43.20
2019-05-14T15:57:28.840Z,43.58
2019-05-14T16:00:00.837Z,43.11
2019-05-14T16:02:29.804Z,42.85
2019-05-14T16:04:59.306Z,42.71
2019-05-14T16:07:29.339Z,43.19
2019-05-14T16:10:00.977Z,42.77
2019-05-14T16:12:32.244Z,42.55
2019-05-14T16:15:00.436Z,42.85
2019-05-14T16:17:30.371Z,43.20
2019-05-14T16:19:59.985Z,42.75
2019-05-14T16:22:29.998Z,42.66
2019-05-14T16:25:00.991Z,43.10
2019-05-14T16:27:30.078Z,43.29
2019-05-14T16:29:59.261Z,42.85
2019-05-14T16:32:28.588Z,42.76
2019-05-14T16:34:58.112Z,42.24
2019-05-14T16:37:28.230Z,42.07
2019-05-14T16:39:57.489Z,42.27
2019-05-14T16:42:29.176Z,42.58
2019-05-14T16:44:57.565Z,42.59
2019-05-14T16:47:28.784Z,42.55
2019-05-14T16:49:59.109Z,42.15
2019-05-14T16:52:28.761Z,42.53
2019-05-14T16:55:16.978Z,42.39
2019-05-14T16:57:29.412Z,42.09
2019-05-14T16:59:58.713Z,42.44
2019-05-14T17:02:29.616Z,42.60
2019-05-14T17:04:59.125Z,43.05
2019-05-14T17:07:28.857Z,43.21
2019-05-14T17:09:58.519Z,42.39
2019-05-14T17:12:30.793Z,42.68
2019-05-14T17:14:58.778Z,42.56
2019-05-14T17:17:27.965Z,42.29
2019-05-14T17:19:58.745Z,42.69
2019-05-14T17:22:33.227Z,42.83
2019-05-14T17:24:58.980Z,42.62
2019-05-14T17:27:28.704Z,42.43
2019-05-14T17:29:59.002Z,42.73
2019-05-14T17:32:30.347Z,42.58
2019-05-14T17:34:59.188Z,42.86
2019-05-14T17:37:28.640Z,42.75
2019-05-14T17:39:58.253Z,42.81
2019-05-14T17:42:28.510Z,42.03
2019-05-14T17:44:58.901Z,42.70
2019-05-14T17:47:29.063Z,42.23
2019-05-14T17:49:59.033Z,42.18
2019-05-14T17:52:30.273Z,41.80
2019-05-14T17:54:59.517Z,41.68
2019-05-14T17:57:35.019Z,41.67
2019-05-14T17:59:59.599Z,41.90
2019-05-14T18:02:28.873Z,42.01
2019-05-14T18:04:59.334Z,42.22
2019-05-14T18:07:28.716Z,41.88
2019-05-14T18:09:58.873Z,42.07
2019-05-14T18:12:30.551Z,41.95
2019-05-14T18:14:59.013Z,41.82
2019-05-14T18:17:29.780Z,41.55
2019-05-14T18:19:58.991Z,41.66
2019-05-14T18:22:28.757Z,41.71
2019-05-14T18:24:59.248Z,41.91
2019-05-14T18:27:29.279Z,41.79
2019-05-14T18:29:59.315Z,41.89
2019-05-14T18:32:28.578Z,42.05
2019-05-14T18:34:58.249Z,41.98
2019-05-14T18:37:29.002Z,41.85
2019-05-14T18:39:58.615Z,41.89
2019-05-14T18:42:29.677Z,41.46
2019-05-14T18:44:59.071Z,42.00
2019-05-14T18:47:29.101Z,42.26
2019-05-14T18:49:59.571Z,42.61
2019-05-14T18:52:30.777Z,42.93
2019-05-14T18:54:59.980Z,43.27
2019-05-14T18:57:29.221Z,43.80
2019-05-14T18:59:58.440Z,44.06
2019-05-14T19:02:29.319Z,44.42
2019-05-14T19:04:58.499Z,44.75
2019-05-14T19:07:28.671Z,45.34
2019-05-14T19:09:58.799Z,46.02
2019-05-14T19:12:28.927Z,46.52
2019-05-14T19:14:58.961Z,46.85
2019-05-14T19:17:28.559Z,47.73
2019-05-14T19:19:58.900Z,48.47
2019-05-14T19:22:28.847Z,49.18
2019-05-14T19:24:58.789Z,49.88
2019-05-14T19:27:28.583Z,50.41
2019-05-14T19:29:59.491Z,50.74
2019-05-14T19:32:28.899Z,51.01
2019-05-14T19:34:58.075Z,51.32
2019-05-14T19:37:29.056Z,51.97
2019-05-14T19:39:58.787Z,52.40
2019-05-14T19:42:28.792Z,52.76
2019-05-14T19:44:59.795Z,53.40
2019-05-14T19:47:29.057Z,53.92
2019-05-14T19:49:58.249Z,54.34
2019-05-14T19:52:30.518Z,54.78
2019-05-14T19:54:59.711Z,55.46
2019-05-14T19:57:29.155Z,55.93
2019-05-14T19:59:58.374Z,56.70
2019-05-14T20:02:28.690Z,56.87
2019-05-14T20:04:58.824Z,57.54
2019-05-14T20:07:28.095Z,58.07
2019-05-14T20:09:58.791Z,58.07
2019-05-14T20:12:28.762Z,58.76
2019-05-14T20:14:58.422Z,58.92
2019-05-14T20:17:28.314Z,59.31
2019-05-14T20:19:57.967Z,59.49
2019-05-14T20:22:28.366Z,59.67
2019-05-14T20:24:58.906Z,59.67
2019-05-14T20:27:28.342Z,60.10
2019-05-14T20:29:58.083Z,60.37
2019-05-14T20:32:27.351Z,60.68
2019-05-14T20:34:58.058Z,61.11
2019-05-14T20:37:29.119Z,60.77
2019-05-14T20:39:59.081Z,60.77
2019-05-14T20:42:29.005Z,61.46
2019-05-14T20:44:58.257Z,61.69
2019-05-14T20:47:28.208Z,61.36
2019-05-14T20:49:58.025Z,61.48
2019-05-14T20:52:28.378Z,61.48
2019-05-14T20:54:58.334Z,61.55
2019-05-14T20:57:32.746Z,61.82
2019-05-14T20:59:58.889Z,61.89
2019-05-14T21:02:29.526Z,61.89
2019-05-14T21:05:04.328Z,62.12
2019-05-14T21:07:29.760Z,62.12
2019-05-14T21:09:58.967Z,62.11
2019-05-14T21:12:28.946Z,62.22
2019-05-14T21:14:59.100Z,62.21
2019-05-14T21:17:28.472Z,62.62
2019-05-14T21:19:57.679Z,62.60
2019-05-14T21:22:29.065Z,62.90
2019-05-14T21:24:58.840Z,63.31
2019-05-14T21:27:41.274Z,63.35
2019-05-14T21:29:58.952Z,63.46
2019-05-14T21:32:28.415Z,63.58
2019-05-14T21:34:58.513Z,64.05
2019-05-14T21:37:28.401Z,63.96
2019-05-14T21:39:58.315Z,64.19
2019-05-14T21:42:28.550Z,64.18
2019-05-14T21:44:58.421Z,64.51
2019-05-14T21:47:28.573Z,64.98
2019-05-14T21:49:58.200Z,65.09
2019-05-14T21:52:28.987Z,65.22
2019-05-14T21:54:58.670Z,65.11
2019-05-14T21:57:28.396Z,65.37
2019-05-14T21:59:58.844Z,65.61
2019-05-14T22:02:30.639Z,65.86
2019-05-14T22:05:01.505Z,66.10
2019-05-14T22:07:32.005Z,65.79
2019-05-14T22:10:01.230Z,65.93
2019-05-14T22:12:30.395Z,65.92
2019-05-14T22:14:59.611Z,65.89
2019-05-14T22:17:31.747Z,65.58
2019-05-14T22:20:00.969Z,65.64
2019-05-14T22:22:30.818Z,65.56
2019-05-14T22:25:00.162Z,65.48
2019-05-14T22:27:29.291Z,65.36
2019-05-14T22:29:59.477Z,64.99
2019-05-14T22:32:28.781Z,64.89
2019-05-14T22:34:59.002Z,65.25
2019-05-14T22:37:28.208Z,65.22
2019-05-14T22:39:59.033Z,65.19
2019-05-14T22:42:28.351Z,65.00
2019-05-14T22:44:58.296Z,64.83
2019-05-14T22:47:27.687Z,64.75
2019-05-14T22:49:59.135Z,64.96
2019-05-14T22:52:28.397Z,64.77
2019-05-14T22:54:59.754Z,64.48
2019-05-14T22:57:31.124Z,64.63
2019-05-14T22:59:59.864Z,64.93
2019-05-14T23:02:29.084Z,64.84
2019-05-14T23:04:58.572Z,65.18
2019-05-14T23:07:27.793Z,64.61
2019-05-14T23:09:59.004Z,64.74
2019-05-14T23:12:28.729Z,64.76
2019-05-14T23:14:58.190Z,64.45
2019-05-14T23:17:28.081Z,64.62
2019-05-14T23:19:58.056Z,64.61
2019-05-14T23:22:29.561Z,64.52
2019-05-14T23:24:59.181Z,64.26
2019-05-14T23:27:48.158Z,64.26
2019-05-14T23:30:20.715Z,64.87
2019-05-14T23:32:50.002Z,64.25
2019-05-14T23:35:19.327Z,63.87
2019-05-14T23:37:49.184Z,63.34
2019-05-14T23:40:18.430Z,63.34
2019-05-14T23:42:49.045Z,63.33
2019-05-14T23:45:18.981Z,63.37
2019-05-14T23:47:49.268Z,63.63
2019-05-14T23:50:18.699Z,62.93
2019-05-14T23:52:49.303Z,63.38
2019-05-14T23:55:18.801Z,63.21
2019-05-14T23:57:48.342Z,63.21
